Flight Track Log - Related Links

Times and Time Zones

All times are in EDT time to prevent confusion due to time zone crossing. See the UAL3740 flight status page for this flight to view local times or setup timezone preferences in your user account.

Time Position Orientation Groundspeed Altitude Reporting Facility
EDT Latitude Longitude Course Direction KTS km/h feet Rate Location/Type
Fri 08:33:15 38.9667 -77.5167 314° West 196 364 2,700  Level Potomac TRACON
Fri 08:34:09 39.0167 -77.5833 314° West 260 481 5,000 2,895 Climbing Potomac TRACON
Fri 08:35:09 39.0833 -77.6167 339° North 288 533 8,200 2,500 Climbing Potomac TRACON
Fri 08:36:09 39.1667 -77.6167 360° North 342 634 10,000 947 Climbing Potomac TRACON
Fri 08:37:03 39.2000 -77.5167 67° East 396 734 10,000 53 Level Potomac TRACON
Fri 08:38:03 39.2000 -77.3667 90° East 386 715 10,100 1,350 Climbing Potomac TRACON
Fri 08:39:03 39.1667 -77.2500 110° East 383 710 12,700 2,222 Climbing Potomac TRACON
Fri 08:41:12 39.1286 -76.9508 99° East 390 723 17,100 2,063 Climbing Washington Center
Fri 08:42:12 39.1344 -76.8039 87° East 395 732 19,200 1,900 Climbing Washington Center
Fri 08:43:12 39.1381 -76.6539 88° East 405 750 20,900 1,650 Climbing Washington Center
Fri 08:44:12 39.1433 -76.4989 87° East 417 772 22,500 1,050 Climbing Washington Center
Fri 08:45:12 39.1486 -76.3383 88° East 430 797 23,000 250 Climbing Washington Center
Fri 08:46:12 39.1578 -76.1750 86° East 449 832 23,000 100 Level Washington Center
Fri 08:47:12 39.1772 -76.0039 82° East 464 859 23,200 950 Climbing Washington Center
Fri 08:48:12 39.2194 -75.8433 71° East 463 858 24,900 1,550 Climbing Washington Center
Fri 08:49:12 39.3175 -75.7178 45° Northeast 457 847 26,300 1,500 Climbing Washington Center
Fri 08:50:12 39.4156 -75.5917 45° Northeast 470 871 27,900 1,400 Climbing Washington Center
Fri 08:51:12 39.5156 -75.4650 44° Northeast 486 900 29,100 1,600 Climbing Washington Center
Fri 08:52:12 39.6133 -75.3383 45° Northeast 497 921 31,100 1,850 Climbing Washington Center
Fri 08:53:12 39.7067 -75.2111 46° Northeast 484 896 32,800 1,018 Climbing Washington Center
Fri 08:54:04 39.7733 -75.1086 50° Northeast 499 924 33,000 105 Climbing New York Center
Fri 08:55:06 39.8700 -74.9714 47° Northeast 518 959 33,000  Level New York Center
Fri 08:56:06 39.9689 -74.8200 50° Northeast 518 959 33,000  Level New York Center
Fri 08:57:04 40.0350 -74.6531 63° Northeast 503 932 33,000  Level New York Center
Fri 08:58:05 40.0986 -74.4939 62° Northeast 495 917 33,000  Level New York Center
Fri 08:59:06 40.1642 -74.3264 63° Northeast 505 935 33,000  Level New York Center
Fri 09:01:23 40.3083 -73.9586 63° Northeast 493 912 33,000 -305 Level Boston Center
Fri 09:02:23 40.3708 -73.7964 63° Northeast 498 922 32,000 -1,537 Descending Boston Center
Fri 09:03:24 40.4267 -73.6369 65° Northeast 515 954 29,900 -2,132 Descending Boston Center
Fri 09:04:24 40.4867 -73.4742 64° Northeast 515 954 27,700 -1,983 Descending Boston Center
Fri 09:05:22 40.5464 -73.3194 63° Northeast 515 954 26,000 -1,664 Descending Boston Center
Fri 09:06:23 40.6017 -73.1700 64° Northeast 452 837 24,400 -1,700 Descending Boston Center
Fri 09:07:22 40.6589 -73.0200 63° Northeast 445 824 22,600 -1,800 Descending Boston Center
Fri 09:08:23 40.7136 -72.8728 64° Northeast 445 824 20,800 -1,835 Descending Boston Center
Fri 09:09:23 40.7661 -72.7306 64° Northeast 438 811 18,900 -1,785 Descending Boston Center
Fri 09:10:24 40.8164 -72.5881 65° Northeast 438 811 17,200 -1,736 Descending Boston Center
Fri 09:11:24 40.8686 -72.4539 63° Northeast 419 776 15,400 -1,780 Descending Boston Center
Fri 09:12:22 40.9164 -72.3219 64° Northeast 405 750 13,700 -1,737 Descending Boston Center
Fri 09:12:40 40.9331 -72.2781 63° Northeast 405 750 13,200 -1,300 Descending Boston Center
Fri 09:13:22 40.9600 -72.1928 67° East 393 727 12,400 -1,282 Descending Boston Center
Fri 09:14:23 41.0014 -72.0689 66° East 377 698 11,000 -793 Descending Boston Center
Fri 09:15:23 41.0425 -71.9475 66° East 365 676 10,800 -826 Descending Boston Center
Fri 09:16:41 41.1253 -71.8175 50° Northeast 326 604 9,100 -1,500 Descending Boston Center
Fri 09:17:47 41.2106 -71.7669 24° Northeast 317 587 7,200 -1,748 Descending Boston Center
Fri 09:18:48 41.2914 -71.7217 23° Northeast 310 575 5,400 -1,082 Descending Boston Center
Fri 09:19:49 41.3683 -71.6822 21° North 303 562 5,000 -541 Descending Boston Center
Fri 09:20:50 41.4450 -71.6369 24° Northeast 296 549 4,300 -600 Descending Boston Center
Fri 09:21:49 41.5075 -71.6058 20° North 232 430 3,800 -496 Descending Boston Center
Fri 09:23:03 41.5592 -71.5689 28° Northeast 171 317 3,200 -444 Descending Boston Center
Fri 09:24:04 41.5964 -71.5325 36° Northeast 167 309 2,800 -639 Descending Boston Center
Fri 09:25:05 41.6358 -71.5014 31° Northeast 166 307 1,900 -843 Descending Boston Center
Fri 09:26:05 41.6711 -71.4731 31° Northeast 133 246 1,100 -738 Descending Boston Center
Fri 09:27:07 41.7000 -71.4475 33° Northeast 130 241 400 -677 Descending Boston Center

Login

Don't have an account? Register now (free) for customized features, flight alerts, and more!